Riverside, United Kingdom
Current Conditions -  °F | °C
As of 2:50 AM on Tuesday 23 Dec 2014 (Local Time) from EGLC Reporting Station
Overcast Overcast  
Wind Chill: 54°   Ceiling: 3000
Heat Index: 54°   Visibility: 6mi
Dew Point: 41°   Wind: 22mph
Humidity: 62%   Direction: 250°WSW
Pressure: 30.03"   Gusts: NA
Location:  51.49°N, 0.09°E
Report Text: EGLC 230250Z AUTO 25019KT 9999 OVC030/// 12/05 Q1017
Loading
Personal Weather Stations






























Interactive Weather Map New forecast layout! Learn more

10-Day Weather Forecast

Advertisements
Track Severe Weather on mobile